Time;durP1;ratioP1;P1;durP2;ratioP2;P2;SDS_P1;SDS_P2;PMS_P1;PMS_P2;Temp;Humidity;BMP_temperature;BMP_pressure;BME280_temperature;BME280_humidity;BME280_pressure;Samples;Min_cycle;Max_cycle;Signal;HPM_P1;HPM_P2
2022/05/03 00:01:48;;;;;;;7.38;6.28;;;;;;;;;;5085916;28;20519;-75
2022/05/03 00:04:17;;;;;;;9.55;5.72;;;;;;;;;;5085801;28;20043;-72
2022/05/03 00:06:52;;;;;;;6.18;5.03;;;;;;;;;;5085408;28;20135;-74
2022/05/03 00:09:24;;;;;;;6.55;5.63;;;;;;;;;;5088734;28;20137;-72
2022/05/03 00:12:17;;;;;;;9.30;6.10;;;;;;;;;;5088464;28;20480;-74
2022/05/03 00:14:49;;;;;;;6.63;5.70;;;;;;;;;;5087454;28;20117;-71
2022/05/03 00:17:18;;;;;;;9.02;5.55;;;;;;;;;;5087986;28;20388;-71
2022/05/03 00:19:45;;;;;;;7.38;5.20;;;;;;;;;;5088098;28;20476;-74
2022/05/03 00:22:14;;;;;;;5.70;4.95;;;;;;;;;;5088467;28;20074;-72
2022/05/03 00:24:41;;;;;;;6.28;5.25;;;;;;;;;;5088219;28;20028;-75
2022/05/03 00:27:07;;;;;;;6.28;4.78;;;;;;;;;;5087990;28;20036;-71
2022/05/03 00:29:34;;;;;;;5.30;4.75;;;;;;;;;;5087775;28;20119;-72
2022/05/03 00:32:03;;;;;;;7.53;4.85;;;;;;;;;;5088080;28;20036;-76
2022/05/03 00:34:33;;;;;;;5.13;4.38;;;;;;;;;;5087819;28;20488;-71
2022/05/03 00:37:00;;;;;;;5.90;5.00;;;;;;;;;;5088107;28;20036;-73
2022/05/03 00:39:26;;;;;;;5.88;4.30;;;;;;;;;;5088060;28;20085;-72
2022/05/03 00:41:53;;;;;;;6.70;4.63;;;;;;;;;;5088373;28;20028;-71
2022/05/03 00:47:20;;;;;;;6.00;4.53;;;;;;;;;;5086921;28;20113;-71
2022/05/03 00:49:55;;;;;;;5.10;3.83;;;;;;;;;;5080586;28;20039;-75
2022/05/03 00:52:29;;;;;;;4.72;4.18;;;;;;;;;;5087763;28;20032;-71
2022/05/03 00:54:58;;;;;;;5.47;4.07;;;;;;;;;;5087022;28;20036;-73
2022/05/03 00:57:37;;;;;;;6.25;4.03;;;;;;;;;;5087296;28;20591;-71
2022/05/03 01:00:10;;;;;;;4.35;3.85;;;;;;;;;;5079982;28;20027;-72
2022/05/03 01:02:55;;;;;;;5.53;4.43;;;;;;;;;;5087196;28;20020;-72
2022/05/03 01:05:26;;;;;;;5.15;4.40;;;;;;;;;;5087464;28;20085;-73
2022/05/03 01:08:13;;;;;;;6.53;4.40;;;;;;;;;;5086531;28;20519;-71
2022/05/03 01:10:39;;;;;;;4.80;4.05;;;;;;;;;;5087218;28;20046;-71
2022/05/03 01:13:08;;;;;;;4.95;4.45;;;;;;;;;;5080795;28;20023;-71
2022/05/03 01:15:38;;;;;;;5.00;4.28;;;;;;;;;;5084002;28;20032;-71
2022/05/03 01:18:14;;;;;;;5.95;3.78;;;;;;;;;;5087004;28;20035;-71
2022/05/03 01:20:49;;;;;;;5.05;4.25;;;;;;;;;;5085409;28;20047;-71
2022/05/03 01:23:33;;;;;;;4.32;3.88;;;;;;;;;;5080212;28;20953;-72
2022/05/03 01:26:08;;;;;;;6.65;4.32;;;;;;;;;;5086636;28;20032;-73
2022/05/03 01:28:53;;;;;;;7.35;4.47;;;;;;;;;;5086799;28;20032;-71
2022/05/03 01:31:19;;;;;;;8.57;4.88;;;;;;;;;;5080200;28;20081;-71
2022/05/03 01:33:46;;;;;;;5.88;4.07;;;;;;;;;;5086838;28;20057;-72
2022/05/03 01:36:16;;;;;;;5.07;4.32;;;;;;;;;;5079087;28;20023;-73
2022/05/03 01:38:57;;;;;;;6.30;4.22;;;;;;;;;;5086476;28;20103;-71
2022/05/03 01:41:42;;;;;;;9.15;4.68;;;;;;;;;;5080313;28;20020;-74
2022/05/03 01:44:17;;;;;;;6.30;4.50;;;;;;;;;;5086631;28;20551;-71
2022/05/03 01:46:43;;;;;;;7.20;5.43;;;;;;;;;;5086470;28;20024;-72
2022/05/03 01:52:22;;;;;;;4.72;4.07;;;;;;;;;;5078835;28;20082;-75
2022/05/03 01:54:48;;;;;;;5.25;4.10;;;;;;;;;;5086704;28;20189;-73
2022/05/03 01:57:20;;;;;;;7.05;4.43;;;;;;;;;;5086234;28;20107;-72
2022/05/03 02:00:05;;;;;;;6.13;4.50;;;;;;;;;;5083586;28;20047;-71
2022/05/03 02:02:54;;;;;;;5.53;4.60;;;;;;;;;;5070713;28;20031;-72
2022/05/03 02:05:26;;;;;;;4.85;4.43;;;;;;;;;;5073902;28;20068;-75
2022/05/03 02:07:57;;;;;;;5.15;4.65;;;;;;;;;;5081532;28;20129;-72
2022/05/03 02:10:24;;;;;;;;;;;;;;;;;;5075410;28;20066;-73
2022/05/03 02:12:53;;;;;;;4.97;4.47;;;;;;;;;;5081160;28;20552;-71
2022/05/03 02:15:27;;;;;;;5.50;4.53;;;;;;;;;;5081404;28;20040;-71
2022/05/03 02:17:54;;;;;;;5.38;4.60;;;;;;;;;;5081185;28;20428;-72
2022/05/03 02:20:39;;;;;;;6.25;4.82;;;;;;;;;;5081346;28;20043;-71
2022/05/03 02:23:08;;;;;;;6.30;4.68;;;;;;;;;;5081283;28;20404;-77
2022/05/03 02:25:51;;;;;;;4.97;4.40;;;;;;;;;;5081780;28;20373;-71
2022/05/03 02:28:26;;;;;;;6.15;5.00;;;;;;;;;;5081141;28;20097;-71
2022/05/03 02:30:53;;;;;;;5.25;4.72;;;;;;;;;;5081340;28;20605;-71
2022/05/03 02:33:19;;;;;;;5.03;4.50;;;;;;;;;;5081229;28;20464;-71
2022/05/03 02:35:49;;;;;;;7.65;5.07;;;;;;;;;;5081014;28;20024;-70
2022/05/03 02:38:18;;;;;;;5.20;4.35;;;;;;;;;;5080973;28;20407;-71
2022/05/03 02:40:45;;;;;;;7.75;4.57;;;;;;;;;;5081362;28;20020;-71
2022/05/03 02:43:13;;;;;;;6.47;4.47;;;;;;;;;;5081041;28;20464;-71
2022/05/03 02:45:42;;;;;;;5.22;4.68;;;;;;;;;;5080045;28;20020;-72
2022/05/03 02:48:17;;;;;;;8.68;4.53;;;;;;;;;;5079631;28;20494;-71
2022/05/03 02:50:43;;;;;;;6.10;4.43;;;;;;;;;;5081229;28;20029;-71
2022/05/03 02:53:11;;;;;;;5.55;4.85;;;;;;;;;;5080833;28;20042;-71
2022/05/03 02:55:46;;;;;;;5.55;4.53;;;;;;;;;;5081397;28;20042;-71
2022/05/03 02:58:15;;;;;;;6.78;4.07;;;;;;;;;;5079238;28;20031;-71
2022/05/03 03:04:01;;;;;;;8.45;4.72;;;;;;;;;;5075586;28;20031;-71
2022/05/03 03:06:31;;;;;;;6.53;4.82;;;;;;;;;;5083335;28;20066;-71
2022/05/03 03:08:58;;;;;;;5.35;4.20;;;;;;;;;;5083230;28;20567;-71
2022/05/03 03:11:43;;;;;;;5.72;4.35;;;;;;;;;;5085846;28;20038;-71
2022/05/03 03:14:12;;;;;;;5.10;4.22;;;;;;;;;;5087096;28;20024;-71
2022/05/03 03:16:50;;;;;;;6.63;4.47;;;;;;;;;;5077937;28;20046;-71
2022/05/03 03:19:22;;;;;;;10.35;4.95;;;;;;;;;;5081017;28;20032;-72
2022/05/03 03:21:49;;;;;;;4.70;4.28;;;;;;;;;;5081999;28;20032;-71
2022/05/03 03:24:16;;;;;;;6.20;4.53;;;;;;;;;;5082079;28;20035;-71
2022/05/03 03:26:44;;;;;;;5.47;4.82;;;;;;;;;;5074714;28;20035;-71
2022/05/03 03:29:11;;;;;;;5.53;4.35;;;;;;;;;;5081689;28;20640;-72
2022/05/03 03:31:37;;;;;;;4.90;4.45;;;;;;;;;;5081553;28;20499;-73
2022/05/03 03:34:05;;;;;;;6.03;4.82;;;;;;;;;;5080166;28;20056;-72
2022/05/03 03:36:32;;;;;;;5.53;4.75;;;;;;;;;;5081905;28;20053;-72
2022/05/03 03:38:58;;;;;;;4.88;4.38;;;;;;;;;;5082039;28;20032;-72
2022/05/03 03:41:25;;;;;;;6.28;4.40;;;;;;;;;;5081476;28;20028;-72
2022/05/03 03:43:53;;;;;;;6.18;4.50;;;;;;;;;;5082046;28;20530;-73
2022/05/03 03:46:19;;;;;;;5.50;4.70;;;;;;;;;;5081794;28;20035;-72
2022/05/03 03:48:46;;;;;;;7.05;4.47;;;;;;;;;;5081266;28;20028;-72
2022/05/03 03:51:14;;;;;;;7.78;4.82;;;;;;;;;;5081836;28;20035;-72
2022/05/03 03:53:41;;;;;;;4.57;4.10;;;;;;;;;;5080982;28;20452;-72
2022/05/03 03:56:07;;;;;;;6.03;3.88;;;;;;;;;;5081613;28;20028;-74
2022/05/03 03:58:34;;;;;;;6.13;4.78;;;;;;;;;;5081398;28;20032;-72
2022/05/03 04:01:00;;;;;;;7.82;4.30;;;;;;;;;;5081740;28;20024;-73
2022/05/03 04:03:26;;;;;;;5.05;3.90;;;;;;;;;;5081720;28;20032;-71
2022/05/03 04:05:53;;;;;;;6.10;4.32;;;;;;;;;;5073300;28;20031;-72
2022/05/03 04:08:19;;;;;;;5.57;4.35;;;;;;;;;;5081135;28;20559;-71
2022/05/03 04:10:45;;;;;;;4.70;4.20;;;;;;;;;;5081139;28;20392;-72
2022/05/03 04:13:14;;;;;;;6.20;4.30;;;;;;;;;;5079525;28;20566;-72
2022/05/03 04:15:40;;;;;;;5.05;4.55;;;;;;;;;;5081098;28;20036;-71
2022/05/03 04:18:07;;;;;;;4.70;4.15;;;;;;;;;;5080813;28;20047;-72
2022/05/03 04:20:34;;;;;;;6.38;4.57;;;;;;;;;;5080377;28;20023;-72
2022/05/03 04:23:00;;;;;;;5.32;4.45;;;;;;;;;;5081158;28;20042;-71
2022/05/03 04:25:26;;;;;;;7.45;4.45;;;;;;;;;;5080891;28;20483;-71
2022/05/03 04:27:52;;;;;;;5.60;4.45;;;;;;;;;;5080745;28;20036;-71
2022/05/03 04:30:18;;;;;;;6.07;4.25;;;;;;;;;;5080791;28;20499;-73
2022/05/03 04:32:44;;;;;;;13.23;4.93;;;;;;;;;;5080726;28;20503;-74
2022/05/03 04:35:10;;;;;;;11.57;4.55;;;;;;;;;;5081483;28;20037;-72
2022/05/03 04:37:37;;;;;;;7.72;4.03;;;;;;;;;;5082892;28;20020;-71
2022/05/03 04:40:03;;;;;;;4.35;3.95;;;;;;;;;;5082634;28;20028;-71
2022/05/03 04:42:29;;;;;;;7.38;5.90;;;;;;;;;;5082632;28;20024;-74
2022/05/03 04:44:55;;;;;;;11.13;4.72;;;;;;;;;;5082711;28;20028;-72
2022/05/03 04:47:21;;;;;;;7.05;4.85;;;;;;;;;;5082945;28;20209;-73
2022/05/03 04:49:48;;;;;;;9.43;7.03;;;;;;;;;;5082948;28;20050;-72
2022/05/03 04:52:14;;;;;;;10.98;8.23;;;;;;;;;;5082650;28;20039;-72
2022/05/03 04:54:40;;;;;;;9.85;7.28;;;;;;;;;;5082521;28;20077;-72
2022/05/03 04:57:07;;;;;;;10.13;7.25;;;;;;;;;;5082742;28;20024;-71
2022/05/03 04:59:33;;;;;;;9.50;7.90;;;;;;;;;;5082732;28;20497;-71
2022/05/03 05:01:59;;;;;;;7.72;6.90;;;;;;;;;;5080514;28;20089;-72
2022/05/03 05:04:26;;;;;;;8.80;7.40;;;;;;;;;;5079695;28;20028;-72
2022/05/03 05:06:52;;;;;;;9.30;6.72;;;;;;;;;;5080142;28;20040;-72
2022/05/03 05:09:18;;;;;;;9.05;6.20;;;;;;;;;;5080367;28;20036;-73
2022/05/03 05:11:44;;;;;;;7.03;6.10;;;;;;;;;;5080081;28;20016;-72
2022/05/03 05:14:10;;;;;;;6.35;5.72;;;;;;;;;;5079860;28;20687;-72
2022/05/03 05:16:36;;;;;;;7.03;5.57;;;;;;;;;;5079602;28;20079;-73
2022/05/03 05:19:03;;;;;;;10.45;6.68;;;;;;;;;;5080020;28;20027;-72
2022/05/03 05:21:29;;;;;;;10.40;6.25;;;;;;;;;;5079687;28;20044;-75
2022/05/03 05:23:55;;;;;;;7.18;5.97;;;;;;;;;;5078932;28;20020;-72
2022/05/03 05:26:21;;;;;;;6.47;5.55;;;;;;;;;;5079696;28;20028;-74
2022/05/03 05:28:47;;;;;;;7.68;5.25;;;;;;;;;;5079462;28;20048;-77
2022/05/03 05:31:13;;;;;;;9.85;5.45;;;;;;;;;;5079641;28;20028;-72
2022/05/03 05:33:39;;;;;;;6.60;5.57;;;;;;;;;;5078304;28;20038;-73
2022/05/03 05:36:06;;;;;;;7.43;5.85;;;;;;;;;;5079986;28;20024;-72
2022/05/03 05:38:32;;;;;;;9.88;5.70;;;;;;;;;;5078600;28;20023;-72
2022/05/03 05:40:58;;;;;;;11.68;6.20;;;;;;;;;;5077614;28;20031;-74
2022/05/03 05:43:24;;;;;;;7.80;6.65;;;;;;;;;;5080565;28;20541;-72
2022/05/03 05:45:50;;;;;;;11.82;6.35;;;;;;;;;;5079889;28;20199;-72
2022/05/03 05:48:16;;;;;;;9.27;6.18;;;;;;;;;;5079193;28;20047;-72
2022/05/03 05:50:43;;;;;;;10.13;6.93;;;;;;;;;;5079346;28;20499;-72
2022/05/03 05:55:54;;;;;;;8.75;5.50;;;;;;;;;;5075731;28;20109;-72
2022/05/03 05:58:20;;;;;;;12.20;6.65;;;;;;;;;;5077613;28;20522;-72
2022/05/03 06:00:46;;;;;;;8.52;7.47;;;;;;;;;;5078000;28;20089;-72
2022/05/03 06:03:14;;;;;;;8.88;7.30;;;;;;;;;;5077632;28;20107;-74
2022/05/03 06:05:40;;;;;;;12.68;7.22;;;;;;;;;;5077700;28;20034;-71
2022/05/03 06:08:07;;;;;;;8.48;6.38;;;;;;;;;;5076774;28;20097;-73
2022/05/03 06:10:33;;;;;;;8.98;6.50;;;;;;;;;;5078912;28;20016;-73
2022/05/03 06:12:59;;;;;;;7.05;5.93;;;;;;;;;;5078335;28;20061;-71
2022/05/03 06:15:26;;;;;;;11.57;7.65;;;;;;;;;;5078688;28;20138;-72
2022/05/03 06:17:53;;;;;;;11.23;7.82;;;;;;;;;;5079061;28;20036;-72
2022/05/03 06:20:19;;;;;;;8.07;7.22;;;;;;;;;;5079495;28;20059;-72
2022/05/03 06:22:45;;;;;;;8.32;6.78;;;;;;;;;;5079077;28;20925;-72
2022/05/03 06:25:11;;;;;;;13.18;6.95;;;;;;;;;;5078153;28;20028;-72
2022/05/03 06:27:38;;;;;;;9.77;7.75;;;;;;;;;;5079100;28;20047;-72
2022/05/03 06:30:08;;;;;;;12.65;8.75;;;;;;;;;;5078158;28;20062;-72
2022/05/03 06:32:35;;;;;;;10.60;8.38;;;;;;;;;;5078915;28;20082;-71
2022/05/03 06:35:01;;;;;;;11.95;8.02;;;;;;;;;;5072041;28;20089;-72
2022/05/03 06:37:27;;;;;;;10.82;8.50;;;;;;;;;;5078597;28;20035;-71
2022/05/03 06:39:54;;;;;;;11.15;9.30;;;;;;;;;;5077189;28;20024;-72
2022/05/03 06:42:20;;;;;;;8.60;6.82;;;;;;;;;;5078822;28;20126;-74
2022/05/03 06:44:47;;;;;;;6.75;5.13;;;;;;;;;;5080683;28;20077;-71
2022/05/03 06:47:14;;;;;;;7.55;6.72;;;;;;;;;;5083420;28;20105;-72
2022/05/03 06:49:40;;;;;;;13.32;6.75;;;;;;;;;;5081994;28;20674;-72
2022/05/03 06:52:06;;;;;;;8.18;4.75;;;;;;;;;;5083746;28;20016;-71
2022/05/03 06:54:32;;;;;;;7.10;5.32;;;;;;;;;;5082383;28;20028;-73
2022/05/03 06:56:58;;;;;;;7.15;5.85;;;;;;;;;;5082314;28;20032;-72
2022/05/03 06:59:24;;;;;;;6.53;5.32;;;;;;;;;;5082637;28;20382;-72
2022/05/03 07:01:50;;;;;;;6.30;5.25;;;;;;;;;;5072844;28;20030;-71
2022/05/03 07:04:17;;;;;;;6.72;5.20;;;;;;;;;;5082172;28;20643;-72
2022/05/03 07:06:43;;;;;;;5.82;4.32;;;;;;;;;;5078661;28;20048;-72
2022/05/03 07:09:09;;;;;;;8.93;4.85;;;;;;;;;;5075896;28;20036;-72
2022/05/03 07:11:35;;;;;;;7.25;4.95;;;;;;;;;;5065497;28;20094;-72
2022/05/03 07:14:02;;;;;;;7.03;4.68;;;;;;;;;;5080912;28;20038;-73
2022/05/03 07:16:28;;;;;;;4.43;3.53;;;;;;;;;;5073993;28;20035;-73
2022/05/03 07:24:23;;;;;;;5.47;4.38;;;;;;;;;;5073850;28;20085;-74
2022/05/03 07:26:49;;;;;;;6.10;4.10;;;;;;;;;;5073872;28;20097;-74
2022/05/03 07:29:16;;;;;;;7.35;3.83;;;;;;;;;;5071232;28;20555;-72
2022/05/03 07:31:43;;;;;;;5.43;3.92;;;;;;;;;;5068327;28;20020;-73
2022/05/03 07:34:09;;;;;;;6.57;4.40;;;;;;;;;;5075625;28;20047;-73
2022/05/03 07:36:35;;;;;;;8.57;4.70;;;;;;;;;;5081658;28;20074;-74
2022/05/03 07:39:02;;;;;;;7.78;4.93;;;;;;;;;;5074536;28;20459;-73
2022/05/03 07:41:28;;;;;;;4.88;4.20;;;;;;;;;;5075634;28;20028;-73
2022/05/03 07:43:54;;;;;;;6.97;4.60;;;;;;;;;;5070572;28;20052;-73
2022/05/03 07:46:20;;;;;;;6.00;4.35;;;;;;;;;;5067610;28;20089;-75
2022/05/03 07:48:46;;;;;;;6.95;4.15;;;;;;;;;;5079693;28;20028;-73
2022/05/03 07:51:13;;;;;;;6.13;4.47;;;;;;;;;;5072893;28;20052;-75
2022/05/03 07:53:39;;;;;;;5.40;3.80;;;;;;;;;;5081287;28;20502;-74
2022/05/03 07:56:06;;;;;;;7.88;4.57;;;;;;;;;;5080339;28;20027;-73
2022/05/03 07:58:32;;;;;;;9.60;5.53;;;;;;;;;;5081036;28;20035;-73
2022/05/03 08:00:58;;;;;;;4.20;3.80;;;;;;;;;;5080493;28;20020;-76
2022/05/03 08:03:24;;;;;;;6.88;5.15;;;;;;;;;;5079990;28;20123;-75
2022/05/03 08:05:50;;;;;;;6.28;4.10;;;;;;;;;;5080442;28;20095;-74
2022/05/03 08:08:16;;;;;;;5.20;4.15;;;;;;;;;;5080898;28;20032;-75
2022/05/03 08:10:45;;;;;;;4.50;3.50;;;;;;;;;;5080702;28;20020;-73
2022/05/03 08:13:11;;;;;;;5.93;4.15;;;;;;;;;;5079856;28;20047;-73
2022/05/03 08:15:38;;;;;;;9.07;3.80;;;;;;;;;;5080753;28;20024;-73
2022/05/03 08:18:05;;;;;;;3.92;3.33;;;;;;;;;;5080373;28;20039;-73
2022/05/03 08:20:31;;;;;;;3.42;3.13;;;;;;;;;;5080666;28;20036;-73
2022/05/03 08:22:57;;;;;;;3.47;3.17;;;;;;;;;;5080366;28;20055;-73
2022/05/03 08:25:23;;;;;;;4.10;3.63;;;;;;;;;;5080008;28;20404;-74
2022/05/03 08:27:49;;;;;;;4.38;3.50;;;;;;;;;;5080672;28;20035;-74
2022/05/03 08:30:15;;;;;;;6.80;4.13;;;;;;;;;;5079946;28;20066;-73
2022/05/03 08:32:41;;;;;;;5.85;3.53;;;;;;;;;;5080531;28;20475;-73
2022/05/03 08:35:08;;;;;;;4.03;2.90;;;;;;;;;;5080109;28;20063;-74
2022/05/03 08:43:06;;;;;;;5.97;3.28;;;;;;;;;;5076317;28;20078;-73
2022/05/03 08:45:33;;;;;;;3.38;2.90;;;;;;;;;;5080265;28;20032;-74
2022/05/03 08:48:03;;;;;;;4.35;3.13;;;;;;;;;;5079969;28;20044;-74
2022/05/03 08:50:31;;;;;;;3.97;2.72;;;;;;;;;;5079561;28;20043;-73
2022/05/03 08:53:01;;;;;;;4.32;2.92;;;;;;;;;;5080374;28;20051;-74
2022/05/03 08:55:27;;;;;;;3.72;2.90;;;;;;;;;;5080011;28;20028;-73
2022/05/03 08:57:54;;;;;;;3.20;2.70;;;;;;;;;;5080562;28;20020;-73
2022/05/03 09:00:20;;;;;;;6.50;3.33;;;;;;;;;;5079935;28;20020;-73
2022/05/03 09:02:51;;;;;;;5.38;3.35;;;;;;;;;;5079007;28;20035;-73
2022/05/03 09:05:18;;;;;;;4.83;3.27;;;;;;;;;;5079832;28;20387;-73
2022/05/03 09:08:04;;;;;;;5.68;3.63;;;;;;;;;;5078315;28;20048;-73
2022/05/03 09:10:31;;;;;;;3.72;3.05;;;;;;;;;;5080214;28;20598;-75
2022/05/03 09:13:18;;;;;;;3.10;2.63;;;;;;;;;;5080012;28;20024;-73
2022/05/03 09:15:44;;;;;;;3.25;2.72;;;;;;;;;;5078732;28;20918;-73
2022/05/03 09:18:20;;;;;;;4.68;3.22;;;;;;;;;;5079453;28;20040;-73
2022/05/03 09:26:18;;;;;;;10.07;3.35;;;;;;;;;;5075936;28;20032;-73
2022/05/03 09:28:45;;;;;;;5.28;3.53;;;;;;;;;;5078161;28;20044;-74
2022/05/03 09:31:11;;;;;;;3.85;3.15;;;;;;;;;;5080299;28;20432;-73
2022/05/03 09:33:38;;;;;;;4.10;2.75;;;;;;;;;;5079717;28;20028;-73
2022/05/03 09:36:09;;;;;;;3.83;2.70;;;;;;;;;;5080026;28;20066;-73
2022/05/03 09:38:44;;;;;;;3.23;2.77;;;;;;;;;;5079373;28;20028;-76
2022/05/03 09:41:14;;;;;;;5.90;3.65;;;;;;;;;;5067872;28;20054;-73
2022/05/03 09:43:59;;;;;;;8.63;3.47;;;;;;;;;;5068594;28;20024;-74
2022/05/03 09:46:25;;;;;;;3.70;3.22;;;;;;;;;;5071054;28;20028;-73
2022/05/03 09:48:52;;;;;;;3.08;2.78;;;;;;;;;;5076717;28;20061;-73
2022/05/03 09:51:18;;;;;;;6.22;3.22;;;;;;;;;;5078968;28;20480;-74
2022/05/03 09:53:55;;;;;;;7.25;3.63;;;;;;;;;;5079194;28;20060;-73
2022/05/03 09:56:24;;;;;;;4.78;3.72;;;;;;;;;;5070927;28;20028;-73
2022/05/03 09:58:52;;;;;;;3.60;3.00;;;;;;;;;;5079322;28;20625;-72
2022/05/03 10:01:18;;;;;;;4.32;3.47;;;;;;;;;;5078622;28;20024;-72
2022/05/03 10:03:46;;;;;;;4.25;3.65;;;;;;;;;;5079490;28;20036;-72
2022/05/03 10:06:12;;;;;;;3.50;2.95;;;;;;;;;;5078567;28;20040;-74
2022/05/03 10:08:39;;;;;;;3.30;3.00;;;;;;;;;;5078974;28;20043;-73
2022/05/03 10:11:05;;;;;;;5.78;3.30;;;;;;;;;;5077310;28;20408;-73
2022/05/03 10:13:31;;;;;;;7.25;3.92;;;;;;;;;;5079092;28;20024;-72
2022/05/03 10:21:39;;;;;;;6.63;3.50;;;;;;;;;;5072639;28;20035;-72
2022/05/03 10:24:06;;;;;;;5.78;3.75;;;;;;;;;;5078429;28;20020;-73
2022/05/03 10:26:51;;;;;;;6.85;3.97;;;;;;;;;;5078440;28;20020;-73
2022/05/03 10:29:17;;;;;;;6.32;3.75;;;;;;;;;;5079003;28;20032;-74
2022/05/03 10:32:05;;;;;;;5.30;3.15;;;;;;;;;;5079249;28;20032;-73
2022/05/03 10:34:40;;;;;;;5.00;3.60;;;;;;;;;;5078864;28;20031;-73
2022/05/03 10:37:13;;;;;;;4.55;3.78;;;;;;;;;;5077994;28;20028;-72
2022/05/03 10:39:49;;;;;;;5.38;3.15;;;;;;;;;;5069688;28;20797;-73
2022/05/03 10:42:16;;;;;;;4.38;3.03;;;;;;;;;;5078337;28;20086;-72
2022/05/03 10:44:46;;;;;;;4.50;3.38;;;;;;;;;;5078926;28;20854;-72
2022/05/03 10:47:14;;;;;;;6.93;3.38;;;;;;;;;;5078403;28;20031;-73
2022/05/03 10:49:58;;;;;;;3.97;3.30;;;;;;;;;;5078669;28;20100;-74
2022/05/03 10:52:25;;;;;;;4.18;3.20;;;;;;;;;;5078367;28;20575;-72
2022/05/03 10:55:10;;;;;;;4.45;2.97;;;;;;;;;;5078204;28;20032;-73
2022/05/03 10:57:55;;;;;;;5.40;3.30;;;;;;;;;;5078378;28;20650;-72
2022/05/03 11:00:41;;;;;;;3.97;3.17;;;;;;;;;;5078061;28;20036;-73
2022/05/03 11:03:21;;;;;;;3.75;3.17;;;;;;;;;;5073472;28;20044;-73
2022/05/03 11:06:05;;;;;;;5.15;3.33;;;;;;;;;;5070752;28;20108;-73
2022/05/03 11:08:31;;;;;;;4.93;3.47;;;;;;;;;;5078609;28;20044;-74
2022/05/03 11:10:57;;;;;;;4.43;3.25;;;;;;;;;;5078124;28;20093;-73
2022/05/03 11:13:39;;;;;;;4.10;3.08;;;;;;;;;;5077446;28;20028;-75
2022/05/03 11:16:05;;;;;;;;;;;;;;;;;;5078810;28;20027;-72
2022/05/03 11:18:32;;;;;;;4.25;3.25;;;;;;;;;;5076891;28;19966;-72
2022/05/03 11:21:13;;;;;;;6.22;2.97;;;;;;;;;;5076961;28;20032;-73
2022/05/03 11:23:47;;;;;;;5.13;3.53;;;;;;;;;;5076446;28;20043;-74
2022/05/03 11:26:13;;;;;;;4.28;3.00;;;;;;;;;;5077328;28;20032;-74
2022/05/03 11:28:39;;;;;;;4.90;3.25;;;;;;;;;;5078226;28;20093;-72
2022/05/03 11:31:07;;;;;;;3.63;3.28;;;;;;;;;;5077823;28;20032;-72
2022/05/03 11:33:48;;;;;;;4.70;3.58;;;;;;;;;;5081529;28;20047;-73
2022/05/03 11:36:14;;;;;;;5.38;3.30;;;;;;;;;;5081352;28;20032;-74
2022/05/03 11:38:40;;;;;;;9.85;4.10;;;;;;;;;;5080828;28;20038;-74
2022/05/03 11:41:07;;;;;;;4.90;3.33;;;;;;;;;;5080475;28;20464;-74
2022/05/03 11:43:33;;;;;;;4.15;3.30;;;;;;;;;;5081302;28;20486;-73
2022/05/03 11:46:00;;;;;;;4.68;3.28;;;;;;;;;;5081710;28;20055;-73
2022/05/03 11:48:26;;;;;;;4.15;3.38;;;;;;;;;;5081136;28;20054;-73
2022/05/03 11:56:29;;;;;;;3.78;3.10;;;;;;;;;;5081694;28;20818;-73
2022/05/03 11:58:55;;;;;;;6.28;3.47;;;;;;;;;;5079695;28;20759;-73
2022/05/03 12:01:23;;;;;;;5.55;3.75;;;;;;;;;;5080169;28;20086;-74
2022/05/03 12:03:53;;;;;;;4.25;3.45;;;;;;;;;;5072056;28;20545;-73
2022/05/03 12:06:21;;;;;;;3.60;3.10;;;;;;;;;;5073046;28;20048;-73
2022/05/03 12:08:48;;;;;;;6.30;2.80;;;;;;;;;;5076448;28;20040;-73
2022/05/03 12:11:21;;;;;;;4.18;3.22;;;;;;;;;;5081141;28;20039;-74
2022/05/03 12:13:47;;;;;;;3.65;2.78;;;;;;;;;;5079833;28;20027;-73
2022/05/03 12:16:17;;;;;;;5.72;3.00;;;;;;;;;;5080524;28;20031;-73
2022/05/03 12:18:48;;;;;;;6.68;3.50;;;;;;;;;;5080776;28;20211;-73
2022/05/03 12:21:16;;;;;;;3.13;2.83;;;;;;;;;;5081287;28;20665;-74
2022/05/03 12:23:43;;;;;;;4.78;3.38;;;;;;;;;;5080828;28;20032;-73
2022/05/03 12:26:13;;;;;;;4.72;3.42;;;;;;;;;;5080034;28;20089;-73
2022/05/03 12:28:40;;;;;;;4.75;3.13;;;;;;;;;;5070298;28;20029;-74
2022/05/03 12:31:08;;;;;;;6.13;3.17;;;;;;;;;;5074260;28;20028;-73
2022/05/03 12:33:39;;;;;;;2.92;2.58;;;;;;;;;;5074447;28;20060;-74
2022/05/03 12:36:05;;;;;;;4.37;2.97;;;;;;;;;;5072153;28;20044;-73
2022/05/03 12:38:31;;;;;;;4.82;3.28;;;;;;;;;;5070047;28;20045;-74
2022/05/03 12:40:59;;;;;;;6.28;2.83;;;;;;;;;;5070527;28;20099;-74
2022/05/03 12:43:26;;;;;;;4.03;3.40;;;;;;;;;;5074660;28;20020;-76
2022/05/03 12:46:08;;;;;;;5.35;3.67;;;;;;;;;;5078301;28;20130;-75
2022/05/03 12:48:36;;;;;;;5.75;3.47;;;;;;;;;;5077160;28;20044;-73
2022/05/03 12:51:03;;;;;;;4.13;3.03;;;;;;;;;;5070245;28;20510;-74
2022/05/03 12:53:33;;;;;;;3.25;2.95;;;;;;;;;;5076525;28;20032;-72
2022/05/03 12:58:45;;;;;;;4.95;3.10;;;;;;;;;;5075900;28;20632;-73
2022/05/03 13:01:11;;;;;;;4.82;3.00;;;;;;;;;;5078497;28;20050;-73
2022/05/03 13:03:38;;;;;;;5.80;3.10;;;;;;;;;;5071331;28;20028;-74
2022/05/03 13:06:04;;;;;;;3.78;3.20;;;;;;;;;;5077186;28;20113;-74
2022/05/03 13:08:31;;;;;;;3.33;3.03;;;;;;;;;;5077608;28;20043;-74
2022/05/03 13:10:58;;;;;;;6.15;3.20;;;;;;;;;;5073422;28;20097;-75
2022/05/03 13:13:24;;;;;;;2.90;2.60;;;;;;;;;;5076191;28;20024;-76
2022/05/03 13:15:51;;;;;;;4.45;2.83;;;;;;;;;;5078002;28;20024;-74
2022/05/03 13:18:17;;;;;;;4.38;3.35;;;;;;;;;;5079419;28;20392;-74
2022/05/03 13:20:44;;;;;;;4.15;3.33;;;;;;;;;;5079239;28;20510;-72
2022/05/03 13:23:13;;;;;;;15.07;3.47;;;;;;;;;;5079869;28;20040;-74
2022/05/03 13:25:39;;;;;;;6.13;3.40;;;;;;;;;;5078348;28;20047;-73
2022/05/03 13:28:09;;;;;;;3.63;3.33;;;;;;;;;;5079570;28;20060;-73
2022/05/03 13:30:35;;;;;;;6.40;3.47;;;;;;;;;;5078012;28;20027;-73
2022/05/03 13:33:01;;;;;;;5.25;3.35;;;;;;;;;;5074937;28;20024;-74
2022/05/03 13:40:57;;;;;;;6.28;3.72;;;;;;;;;;5077104;28;20057;-73
2022/05/03 13:43:23;;;;;;;3.17;2.53;;;;;;;;;;5079329;28;20521;-74
2022/05/03 13:45:49;;;;;;;5.82;3.35;;;;;;;;;;5078397;28;20024;-73
2022/05/03 13:48:16;;;;;;;4.63;3.53;;;;;;;;;;5078740;28;20031;-73
2022/05/03 13:50:43;;;;;;;5.50;3.15;;;;;;;;;;5077217;28;20031;-73
2022/05/03 13:53:09;;;;;;;4.35;3.40;;;;;;;;;;5078564;28;20034;-73
2022/05/03 13:55:39;;;;;;;3.65;3.20;;;;;;;;;;5078584;28;20171;-73
2022/05/03 13:58:06;;;;;;;4.55;2.80;;;;;;;;;;5078201;28;20453;-73
2022/05/03 14:00:33;;;;;;;4.07;2.97;;;;;;;;;;5078989;28;20032;-75
2022/05/03 14:02:59;;;;;;;6.85;3.22;;;;;;;;;;5077092;28;20493;-75
2022/05/03 14:05:26;;;;;;;3.67;2.92;;;;;;;;;;5078813;28;20016;-73
2022/05/03 14:07:52;;;;;;;3.80;3.25;;;;;;;;;;5078069;28;20066;-74
2022/05/03 14:10:18;;;;;;;6.60;4.05;;;;;;;;;;5079372;28;20507;-73
2022/05/03 14:12:44;;;;;;;5.78;3.40;;;;;;;;;;5079314;28;20028;-73
2022/05/03 14:15:10;;;;;;;4.72;2.88;;;;;;;;;;5077983;28;20035;-73
2022/05/03 14:17:36;;;;;;;5.28;2.90;;;;;;;;;;5078812;28;20304;-73
2022/05/03 14:20:03;;;;;;;4.18;3.13;;;;;;;;;;5077150;28;20114;-73
2022/05/03 14:22:30;;;;;;;6.95;3.50;;;;;;;;;;5079092;28;20020;-72
2022/05/03 14:24:56;;;;;;;4.03;3.63;;;;;;;;;;5078582;28;20032;-72
2022/05/03 14:27:22;;;;;;;4.63;3.50;;;;;;;;;;5077166;28;20036;-72
2022/05/03 14:29:49;;;;;;;4.70;2.80;;;;;;;;;;5078243;28;20036;-73
2022/05/03 14:32:15;;;;;;;4.63;2.97;;;;;;;;;;5077116;28;20024;-74
2022/05/03 14:34:42;;;;;;;3.83;3.13;;;;;;;;;;5075778;28;20039;-73
2022/05/03 14:37:08;;;;;;;4.55;3.10;;;;;;;;;;5077663;28;20300;-74
2022/05/03 14:39:34;;;;;;;4.25;2.90;;;;;;;;;;5075267;28;20501;-72
2022/05/03 14:42:02;;;;;;;5.63;3.58;;;;;;;;;;5078674;28;20301;-76
2022/05/03 14:44:28;;;;;;;4.78;3.40;;;;;;;;;;5078224;28;20468;-73
2022/05/03 14:46:54;;;;;;;4.53;2.67;;;;;;;;;;5077970;28;20476;-73
2022/05/03 14:49:21;;;;;;;4.75;2.80;;;;;;;;;;5076376;28;20478;-73
2022/05/03 14:51:47;;;;;;;5.40;2.95;;;;;;;;;;5078521;28;20057;-73
2022/05/03 14:54:14;;;;;;;4.65;3.53;;;;;;;;;;5078183;28;20041;-73
2022/05/03 15:04:57;;;;;;;4.13;3.22;;;;;;;;;;5076873;28;20101;-73
2022/05/03 15:07:23;;;;;;;6.65;3.50;;;;;;;;;;5080390;28;20048;-73
2022/05/03 15:09:49;;;;;;;4.20;3.40;;;;;;;;;;5082756;28;20036;-73
2022/05/03 15:12:15;;;;;;;5.35;3.33;;;;;;;;;;5081031;28;20032;-72
2022/05/03 15:14:41;;;;;;;4.80;3.47;;;;;;;;;;5081234;28;20062;-71
2022/05/03 15:17:08;;;;;;;4.45;3.40;;;;;;;;;;5081740;28;20081;-72
2022/05/03 15:19:34;;;;;;;5.50;3.60;;;;;;;;;;5081456;28;20035;-72
2022/05/03 15:22:00;;;;;;;4.65;3.67;;;;;;;;;;5080912;28;20476;-72
2022/05/03 15:24:36;;;;;;;4.55;3.15;;;;;;;;;;5081456;28;20061;-71
2022/05/03 15:27:06;;;;;;;6.20;3.00;;;;;;;;;;5069035;28;20036;-73
2022/05/03 15:29:33;;;;;;;3.67;2.97;;;;;;;;;;5073359;28;20044;-72
2022/05/03 15:32:19;;;;;;;5.90;3.40;;;;;;;;;;5080229;28;20035;-73
2022/05/03 15:34:45;;;;;;;3.47;3.08;;;;;;;;;;5085010;28;20426;-73
2022/05/03 15:37:11;;;;;;;9.50;3.15;;;;;;;;;;5080269;28;20028;-74
2022/05/03 15:39:37;;;;;;;15.02;3.83;;;;;;;;;;5079610;28;20024;-74
2022/05/03 15:42:06;;;;;;;6.28;3.22;;;;;;;;;;5078554;28;20727;-74
2022/05/03 15:44:33;;;;;;;5.18;3.45;;;;;;;;;;5079003;28;20044;-76
2022/05/03 15:46:59;;;;;;;29.48;5.32;;;;;;;;;;5080188;28;20043;-78
2022/05/03 15:49:25;;;;;;;9.48;3.28;;;;;;;;;;5077063;28;20036;-74